Time;durP1;ratioP1;P1;durP2;ratioP2;P2;SDS_P1;SDS_P2;PMS_P1;PMS_P2;Temp;Humidity;BMP_temperature;BMP_pressure;BME280_temperature;BME280_humidity;BME280_pressure;Samples;Min_cycle;Max_cycle;Signal;HPM_P1;HPM_P2
2021/07/10 00:01:08;;;;;;;11.45;1.40;;;;;;;22.32;52.69;100569.34;4974545;28;20051;-80
2021/07/10 00:04:12;;;;;;;6.93;1.50;;;;;;;22.23;53.10;100570.56;4977129;28;20042;-80
2021/07/10 00:07:16;;;;;;;3.88;1.08;;;;;;;22.20;53.12;100563.59;4978131;28;20054;-80
2021/07/10 00:10:21;;;;;;;11.55;1.48;;;;;;;22.17;53.38;100566.75;4978349;28;20058;-81
2021/07/10 00:13:25;;;;;;;9.00;1.15;;;;;;;22.14;53.23;100574.53;4978265;28;20065;-80
2021/07/10 00:16:30;;;;;;;5.88;1.98;;;;;;;22.12;53.24;100569.25;4977349;28;20050;-79
2021/07/10 00:19:34;;;;;;;4.18;1.00;;;;;;;22.05;53.35;100568.38;4977110;28;20509;-78
2021/07/10 00:22:40;;;;;;;5.72;1.00;;;;;;;22.00;53.65;100565.41;4978345;28;20050;-78
2021/07/10 00:25:44;;;;;;;4.85;0.90;;;;;;;21.95;53.75;100563.28;4978081;28;20049;-78
2021/07/10 00:28:49;;;;;;;4.45;1.33;;;;;;;21.90;53.82;100560.31;4978077;28;20046;-80
2021/07/10 00:31:53;;;;;;;3.72;1.80;;;;;;;21.88;53.73;100564.31;4977954;28;20050;-81
2021/07/10 00:35:07;;;;;;;4.55;0.90;;;;;;;21.87;53.80;100557.16;4978144;28;20411;-80
2021/07/10 00:38:11;;;;;;;2.58;0.82;;;;;;;21.85;53.46;100553.81;4977756;28;20057;-80
2021/07/10 00:41:17;;;;;;;6.30;1.20;;;;;;;21.84;53.65;100546.59;4978066;28;20053;-80
2021/07/10 00:44:22;;;;;;;3.22;0.90;;;;;;;21.89;53.65;100550.44;4977204;28;20146;-79
2021/07/10 00:47:26;;;;;;;6.55;0.98;;;;;;;21.86;53.76;100541.81;4977468;28;20054;-81
2021/07/10 00:50:31;;;;;;;5.05;0.90;;;;;;;21.85;53.53;100551.06;5001415;28;20052;-77
2021/07/10 00:53:35;;;;;;;3.65;0.80;;;;;;;21.87;53.48;100551.69;5016649;28;20053;-77
2021/07/10 00:56:41;;;;;;;2.42;0.93;;;;;;;21.88;53.68;100546.03;5004805;28;20068;-80
2021/07/10 00:59:46;;;;;;;3.00;0.98;;;;;;;21.79;53.95;100540.91;5004398;28;20118;-80
2021/07/10 01:02:52;;;;;;;2.33;0.90;;;;;;;21.79;53.98;100540.91;5004176;28;20052;-78
2021/07/10 01:05:56;;;;;;;4.70;0.80;;;;;;;21.77;53.84;100540.25;5022056;28;20603;-80
2021/07/10 01:09:02;;;;;;;2.17;0.75;;;;;;;21.78;53.93;100540.06;5035289;28;20049;-79
2021/07/10 01:12:06;;;;;;;2.10;0.68;;;;;;;21.81;53.93;100538.81;5035794;28;20053;-78
2021/07/10 01:15:13;;;;;;;4.18;0.90;;;;;;;21.80;53.57;100537.94;5034861;28;20479;-79
2021/07/10 01:18:18;;;;;;;1.85;0.60;;;;;;;21.70;53.93;100539.38;5036121;28;20048;-80
2021/07/10 01:21:23;;;;;;;3.00;0.90;;;;;;;21.68;54.11;100538.72;5035861;28;20495;-79
2021/07/10 01:24:27;;;;;;;3.72;0.73;;;;;;;21.64;54.53;100541.03;5035288;28;20060;-80
2021/07/10 01:27:32;;;;;;;2.10;0.80;;;;;;;21.73;54.32;100541.69;5035119;28;20048;-79
2021/07/10 01:30:38;;;;;;;5.07;0.93;;;;;;;21.79;54.02;100540.91;5027876;28;20060;-79
2021/07/10 01:33:42;;;;;;;3.25;0.80;;;;;;;21.70;54.45;100531.19;5034325;28;20396;-80
2021/07/10 01:36:46;;;;;;;7.97;0.80;;;;;;;21.60;54.66;100525.25;5035803;28;20117;-79
2021/07/10 01:39:50;;;;;;;2.17;0.77;;;;;;;21.51;54.76;100529.16;5035507;28;20499;-80
2021/07/10 01:42:55;;;;;;;5.30;0.90;;;;;;;21.44;54.69;100525.56;5035501;28;20488;-79
2021/07/10 01:46:00;;;;;;;3.50;0.80;;;;;;;21.38;55.18;100535.38;5035674;28;20049;-79
2021/07/10 01:49:04;;;;;;;1.80;0.80;;;;;;;21.37;55.13;100528.25;5035428;28;20065;-78
2021/07/10 01:52:09;;;;;;;3.70;1.10;;;;;;;21.35;55.23;100527.63;5035539;28;20060;-79
2021/07/10 01:55:14;;;;;;;3.33;0.90;;;;;;;21.27;55.52;100519.56;5035201;28;20112;-79
2021/07/10 01:58:19;;;;;;;3.90;0.90;;;;;;;21.17;56.39;100525.38;5035060;28;20499;-78
2021/07/10 02:01:23;;;;;;;4.57;1.00;;;;;;;21.19;56.06;100517.84;5033976;28;20048;-80
2021/07/10 02:04:29;;;;;;;2.90;0.82;;;;;;;21.12;56.04;100527.88;5035368;28;20064;-79
2021/07/10 02:07:33;;;;;;;2.88;0.85;;;;;;;21.00;56.23;100518.50;5033711;28;20404;-78
2021/07/10 02:10:37;;;;;;;3.17;0.70;;;;;;;20.98;56.54;100520.59;5035227;28;20068;-79
2021/07/10 02:13:43;;;;;;;2.92;0.90;;;;;;;20.94;56.72;100511.09;5034858;28;20417;-79
2021/07/10 02:16:48;;;;;;;3.60;0.80;;;;;;;20.87;56.58;100507.47;5034869;28;20052;-78
2021/07/10 02:19:53;;;;;;;3.15;0.80;;;;;;;20.81;56.99;100511.00;5034852;28;20056;-79
2021/07/10 02:22:58;;;;;;;3.25;1.08;;;;;;;20.80;56.67;100512.03;5034688;28;20068;-80
2021/07/10 02:26:02;;;;;;;6.30;1.08;;;;;;;20.80;56.51;100511.19;5034347;28;20053;-79
2021/07/10 02:29:07;;;;;;;3.65;1.27;;;;;;;20.83;56.58;100519.84;5034462;28;20052;-81
2021/07/10 02:32:12;;;;;;;3.47;0.90;;;;;;;20.79;56.65;100518.53;5034287;28;20420;-79
2021/07/10 02:35:16;;;;;;;4.63;1.30;;;;;;;20.76;56.83;100505.28;5033758;28;20056;-80
2021/07/10 02:38:20;;;;;;;4.18;0.80;;;;;;;20.77;56.63;100505.09;5034646;28;20072;-80
2021/07/10 02:41:25;;;;;;;4.65;1.25;;;;;;;20.85;56.74;100504.09;5034696;28;20052;-79
2021/07/10 02:44:29;;;;;;;3.97;1.27;;;;;;;20.88;56.60;100511.91;5033569;28;20064;-79
2021/07/10 02:47:33;;;;;;;2.67;0.80;;;;;;;20.97;55.98;100516.16;5034282;28;20377;-80
2021/07/10 02:50:38;;;;;;;2.50;0.70;;;;;;;20.93;56.30;100517.63;5033778;28;20056;-78
2021/07/10 02:53:43;;;;;;;5.63;1.00;;;;;;;20.90;56.45;100509.81;5033154;28;20060;-78
2021/07/10 02:56:47;;;;;;;3.30;0.80;;;;;;;21.03;55.97;100512.66;5034219;28;20496;-80
2021/07/10 02:59:52;;;;;;;3.78;1.23;;;;;;;21.14;56.28;100514.84;5034051;28;20052;-78
2021/07/10 03:02:57;;;;;;;4.50;1.00;;;;;;;21.19;55.80;100514.25;5033910;28;20049;-78
2021/07/10 03:06:01;;;;;;;4.63;1.10;;;;;;;21.22;55.79;100519.31;5033703;28;20048;-80
2021/07/10 03:09:05;;;;;;;3.75;1.10;;;;;;;21.18;55.71;100516.13;5033710;28;20056;-79
2021/07/10 03:12:09;;;;;;;4.93;0.90;;;;;;;21.12;56.36;100525.13;5033912;28;20052;-79
2021/07/10 03:15:15;;;;;;;2.35;0.82;;;;;;;21.03;55.99;100515.38;5032813;28;20515;-79
2021/07/10 03:18:20;;;;;;;2.08;0.73;;;;;;;20.86;56.35;100516.72;5033838;28;20052;-80
2021/07/10 03:21:24;;;;;;;7.45;1.08;;;;;;;20.97;56.41;100518.91;5034124;28;20060;-79
2021/07/10 03:24:29;;;;;;;1.80;0.98;;;;;;;20.96;55.61;100524.56;5033760;28;20044;-79
2021/07/10 03:27:33;;;;;;;4.28;0.85;;;;;;;20.90;56.12;100523.47;5033956;28;20045;-80
2021/07/10 03:30:38;;;;;;;2.72;0.80;;;;;;;20.83;56.43;100525.28;5032513;28;20068;-80
2021/07/10 03:33:44;;;;;;;2.88;0.90;;;;;;;20.71;56.63;100529.59;5033953;28;20044;-79
2021/07/10 03:36:48;;;;;;;2.30;0.70;;;;;;;20.60;57.02;100532.81;5033773;28;20055;-80
2021/07/10 03:39:53;;;;;;;4.43;1.00;;;;;;;20.59;57.58;100539.34;5037210;28;20045;-80
2021/07/10 03:42:57;;;;;;;4.45;0.80;;;;;;;20.50;57.61;100535.88;5037962;28;20048;-80
2021/07/10 03:46:03;;;;;;;2.63;0.80;;;;;;;20.44;58.12;100533.91;5037892;28;20048;-80
2021/07/10 03:49:07;;;;;;;2.40;0.80;;;;;;;20.47;57.84;100536.25;5037503;28;20057;-81
2021/07/10 03:52:11;;;;;;;3.42;1.13;;;;;;;20.45;58.21;100530.16;5037534;28;20053;-80
2021/07/10 03:55:16;;;;;;;3.20;0.90;;;;;;;20.51;57.54;100537.59;5037486;28;20048;-78
2021/07/10 03:58:21;;;;;;;2.83;0.93;;;;;;;20.49;57.75;100542.38;5037682;28;20056;-78
2021/07/10 04:01:25;;;;;;;5.22;1.00;;;;;;;20.54;57.48;100531.72;5037293;28;20056;-80
2021/07/10 04:04:30;;;;;;;6.07;0.80;;;;;;;20.63;57.44;100533.28;5035672;28;20044;-80
2021/07/10 04:07:34;;;;;;;5.22;0.80;;;;;;;20.64;57.33;100534.16;5017802;28;20049;-80
2021/07/10 04:10:38;;;;;;;2.17;0.77;;;;;;;20.72;56.82;100531.25;5025583;28;20412;-80
2021/07/10 04:13:43;;;;;;;3.33;0.82;;;;;;;20.81;56.72;100527.38;5017576;28;20060;-79
2021/07/10 04:16:47;;;;;;;1.98;0.60;;;;;;;20.98;56.30;100541.59;5016903;28;20049;-80
2021/07/10 04:19:51;;;;;;;3.10;0.70;;;;;;;21.22;55.57;100542.03;5017220;28;20057;-79
2021/07/10 04:22:56;;;;;;;2.50;0.90;;;;;;;21.39;54.66;100534.34;5017467;28;20068;-80
2021/07/10 04:26:00;;;;;;;2.28;0.90;;;;;;;21.60;54.44;100537.03;5004746;28;20057;-80
2021/07/10 04:29:04;;;;;;;2.17;0.80;;;;;;;21.78;54.21;100539.19;5017219;28;20061;-80
2021/07/10 04:32:09;;;;;;;4.03;0.85;;;;;;;22.00;53.49;100541.66;5017032;28;20072;-79
2021/07/10 04:35:13;;;;;;;2.47;0.70;;;;;;;22.30;52.78;100525.78;5016916;28;20417;-79
2021/07/10 04:38:20;;;;;;;2.58;0.70;;;;;;;22.48;52.41;100536.13;5005024;28;20060;-80
2021/07/10 04:41:24;;;;;;;4.10;0.80;;;;;;;22.81;51.62;100542.53;5023561;28;20052;-80
2021/07/10 04:44:29;;;;;;;5.32;1.00;;;;;;;23.10;50.67;100538.53;5016542;28;20053;-79
2021/07/10 04:47:33;;;;;;;5.38;1.02;;;;;;;23.23;50.15;100539.34;5016717;28;20057;-79
2021/07/10 04:50:37;;;;;;;24.63;22.25;;;;;;;23.40;49.87;100534.34;5004029;28;20409;-79
2021/07/10 04:53:41;;;;;;;24.73;19.55;;;;;;;23.66;49.37;100537.00;5004881;28;20374;-79
2021/07/10 04:56:46;;;;;;;9.82;1.63;;;;;;;24.03;48.23;100535.41;5024205;28;20049;-78
2021/07/10 04:59:50;;;;;;;3.33;0.88;;;;;;;24.37;47.48;100525.97;5016579;28;20053;-80
2021/07/10 05:02:55;;;;;;;5.18;0.80;;;;;;;24.71;46.57;100525.56;5004571;28;20053;-81
2021/07/10 05:05:59;;;;;;;3.70;0.65;;;;;;;25.06;45.31;100529.50;5016059;28;20061;-79
2021/07/10 05:09:04;;;;;;;5.75;0.60;;;;;;;25.34;45.27;100537.28;5016292;28;20068;-79
2021/07/10 05:12:08;;;;;;;3.97;0.75;;;;;;;25.71;44.72;100532.72;5016267;28;20045;-80
2021/07/10 05:15:13;;;;;;;4.55;0.80;;;;;;;25.92;43.79;100532.28;5016492;28;20049;-81
2021/07/10 05:18:19;;;;;;;3.47;0.90;;;;;;;26.51;42.76;100536.16;5017310;28;20048;-80
2021/07/10 05:21:24;;;;;;;1.85;0.63;;;;;;;27.04;41.82;100548.06;5035722;28;20052;-80
2021/07/10 05:24:28;;;;;;;4.82;0.70;;;;;;;27.20;41.28;100547.38;5036151;28;20053;-79
2021/07/10 05:27:33;;;;;;;1.70;0.60;;;;;;;27.38;40.91;100539.00;5036051;28;20052;-81
2021/07/10 05:30:37;;;;;;;6.72;0.75;;;;;;;27.96;39.92;100547.25;5035823;28;20049;-81
2021/07/10 05:33:43;;;;;;;4.93;0.73;;;;;;;28.97;38.62;100546.50;5035696;28;20056;-81
2021/07/10 05:36:48;;;;;;;2.60;0.70;;;;;;;29.92;36.20;100550.00;5034282;28;20512;-81
2021/07/10 05:39:52;;;;;;;4.93;1.10;;;;;;;32.29;32.92;100556.88;5035612;28;20057;-80
2021/07/10 05:42:56;;;;;;;2.30;0.68;;;;;;;33.85;30.72;100555.06;5035702;28;20045;-80
2021/07/10 05:46:00;;;;;;;4.15;0.60;;;;;;;35.74;28.26;100549.69;5035416;28;20048;-80
2021/07/10 05:49:05;;;;;;;6.35;0.80;;;;;;;37.52;26.16;100554.47;5035178;28;20377;-81
2021/07/10 05:52:09;;;;;;;3.92;0.70;;;;;;;38.57;24.45;100562.72;5035652;28;20060;-80
2021/07/10 05:55:14;;;;;;;3.22;0.65;;;;;;;39.61;23.46;100562.47;5024478;28;20048;-80
2021/07/10 05:58:19;;;;;;;4.65;0.70;;;;;;;40.51;22.88;100570.31;5035346;28;20076;-81
2021/07/10 06:01:23;;;;;;;4.68;0.80;;;;;;;41.11;22.55;100570.34;5021603;28;20056;-78
2021/07/10 06:04:28;;;;;;;2.05;0.52;;;;;;;41.18;22.15;100567.06;5034918;28;20515;-79
2021/07/10 06:07:32;;;;;;;4.45;0.80;;;;;;;41.59;22.01;100572.13;5034878;28;20056;-81
2021/07/10 06:10:36;;;;;;;4.97;1.25;;;;;;;42.87;20.71;100570.69;5035121;28;20060;-79
2021/07/10 06:13:41;;;;;;;5.55;0.95;;;;;;;42.32;21.48;100577.34;5035144;28;20060;-81
2021/07/10 06:16:45;;;;;;;6.05;0.80;;;;;;;42.11;22.11;100576.47;5034852;28;20496;-79
2021/07/10 06:19:49;;;;;;;5.88;1.00;;;;;;;42.29;22.17;100586.53;5034763;28;20480;-80
2021/07/10 06:22:54;;;;;;;4.45;1.15;;;;;;;41.59;22.93;100591.88;5034894;28;20060;-81
2021/07/10 06:25:58;;;;;;;3.60;0.70;;;;;;;42.73;22.01;100585.09;5033683;28;20056;-79
2021/07/10 06:29:04;;;;;;;8.20;1.00;;;;;;;41.64;22.50;100583.22;5033393;28;20388;-81
2021/07/10 06:32:08;;;;;;;9.48;0.95;;;;;;;42.04;21.83;100582.63;5014871;28;20056;-81
2021/07/10 06:35:13;;;;;;;7.65;1.10;;;;;;;41.87;21.59;100579.88;5002842;28;20061;-81
2021/07/10 06:38:18;;;;;;;6.05;1.00;;;;;;;41.42;21.86;100595.56;5014961;28;20057;-80
2021/07/10 06:41:22;;;;;;;7.38;0.95;;;;;;;41.39;21.35;100596.22;5019427;28;20512;-81
2021/07/10 06:44:27;;;;;;;8.75;1.10;;;;;;;43.76;18.96;100602.00;5022184;28;20052;-81
2021/07/10 06:47:32;;;;;;;8.23;1.00;;;;;;;43.42;19.93;100602.34;5034192;28;20512;-82
2021/07/10 06:50:36;;;;;;;5.97;1.08;;;;;;;44.55;18.89;100606.34;5031539;28;20064;-83
2021/07/10 06:53:40;;;;;;;3.30;0.90;;;;;;;46.36;17.03;100599.06;5033748;28;20056;-81
2021/07/10 06:56:44;;;;;;;8.10;1.08;;;;;;;44.96;17.91;100597.56;5034146;28;20096;-79
2021/07/10 06:59:49;;;;;;;6.63;1.17;;;;;;;46.06;17.17;100606.38;5034334;28;20056;-79
2021/07/10 07:02:53;;;;;;;4.60;0.88;;;;;;;46.99;16.10;100589.19;5033431;28;20044;-80
2021/07/10 07:05:58;;;;;;;8.77;1.25;;;;;;;48.58;15.47;100586.53;5032582;28;20056;-81
2021/07/10 07:09:02;;;;;;;8.13;1.10;;;;;;;48.25;15.53;100589.22;5033266;28;20044;-83
2021/07/10 07:12:08;;;;;;;5.55;1.02;;;;;;;47.73;15.79;100589.91;5013432;28;20515;-81
2021/07/10 07:15:13;;;;;;;2.38;0.95;;;;;;;48.92;15.20;100588.25;5020328;28;20049;-79
2021/07/10 07:18:18;;;;;;;3.05;0.93;;;;;;;48.39;15.90;100588.66;5033639;28;20049;-81
2021/07/10 07:21:24;;;;;;;6.28;1.02;;;;;;;48.25;15.51;100586.38;5025816;28;20049;-79
2021/07/10 07:24:28;;;;;;;3.35;1.00;;;;;;;49.71;14.62;100590.88;5014191;28;20041;-79
2021/07/10 07:27:32;;;;;;;4.30;1.02;;;;;;;49.07;14.41;100588.44;5014035;28;20045;-80
2021/07/10 07:30:37;;;;;;;2.40;0.90;;;;;;;51.46;13.26;100578.19;5013706;28;20072;-82
2021/07/10 07:33:41;;;;;;;2.85;1.00;;;;;;;52.19;13.38;100578.72;5014266;28;20061;-79
2021/07/10 07:36:46;;;;;;;2.33;1.10;;;;;;;52.38;13.47;100584.03;5013021;28;20401;-79
2021/07/10 07:39:51;;;;;;;4.00;1.38;;;;;;;51.96;13.68;100579.13;5017100;28;20511;-80
2021/07/10 07:42:55;;;;;;;3.95;1.23;;;;;;;50.67;14.30;100575.38;5030900;28;20116;-81
2021/07/10 07:46:00;;;;;;;4.88;1.40;;;;;;;51.54;13.77;100579.84;5030098;28;20072;-81
2021/07/10 07:49:05;;;;;;;6.00;1.10;;;;;;;51.42;13.78;100576.56;5031035;28;20052;-80
2021/07/10 07:52:09;;;;;;;3.67;1.00;;;;;;;48.40;15.09;100573.22;5031893;28;20401;-80
2021/07/10 07:55:15;;;;;;;3.72;0.80;;;;;;;49.19;15.13;100573.91;5033378;28;20488;-80
2021/07/10 07:58:19;;;;;;;2.75;1.02;;;;;;;50.95;14.38;100571.88;5032649;28;20056;-80
2021/07/10 08:01:24;;;;;;;2.63;1.08;;;;;;;49.88;14.67;100575.13;5033639;28;20061;-81
2021/07/10 08:04:28;;;;;;;3.35;1.10;;;;;;;49.44;14.45;100575.88;5032604;28;20393;-81
2021/07/10 08:07:33;;;;;;;13.98;1.48;;;;;;;50.51;14.60;100569.13;5033606;28;20056;-81
2021/07/10 08:10:37;;;;;;;17.00;1.73;;;;;;;49.86;14.54;100568.97;5026875;28;20065;-79
2021/07/10 08:13:44;;;;;;;2.35;0.90;;;;;;;48.48;15.56;100569.25;5021459;28;20496;-79
2021/07/10 08:16:49;;;;;;;6.40;1.20;;;;;;;47.03;16.50;100566.53;5027013;28;20061;-81
2021/07/10 08:19:53;;;;;;;6.03;1.30;;;;;;;45.22;17.93;100577.25;5013631;28;20049;-80
2021/07/10 08:22:59;;;;;;;5.00;0.95;;;;;;;41.95;19.95;100572.56;5013548;28;20049;-79
2021/07/10 08:26:03;;;;;;;12.02;1.75;;;;;;;40.28;21.97;100572.38;5016819;28;20489;-78
2021/07/10 08:29:08;;;;;;;6.80;1.23;;;;;;;39.07;23.53;100576.75;5028291;28;20505;-78
2021/07/10 08:32:12;;;;;;;6.15;0.90;;;;;;;37.94;24.99;100575.84;5020638;28;20041;-79
2021/07/10 08:35:18;;;;;;;5.30;1.20;;;;;;;36.65;26.01;100570.97;5019117;28;20045;-79
2021/07/10 08:38:23;;;;;;;4.50;1.40;;;;;;;35.06;28.17;100573.22;5016801;28;20053;-79
2021/07/10 08:41:28;;;;;;;3.67;1.38;;;;;;;34.59;28.01;100571.00;5016867;28;20049;-79
2021/07/10 08:44:34;;;;;;;7.60;1.02;;;;;;;34.90;28.66;100572.44;5017109;28;20393;-77
2021/07/10 08:47:42;;;;;;;4.93;1.30;;;;;;;34.71;28.85;100567.84;5012932;28;20044;-78
2021/07/10 08:50:47;;;;;;;3.42;0.90;;;;;;;34.46;28.51;100566.00;4984068;28;20054;-80
2021/07/10 08:53:52;;;;;;;4.53;1.30;;;;;;;33.34;29.99;100572.94;4994305;28;20050;-78
2021/07/10 08:56:56;;;;;;;2.40;1.33;;;;;;;33.04;30.97;100573.75;4995173;28;20053;-79
2021/07/10 09:00:12;;;;;;;4.35;1.30;;;;;;;33.23;30.84;100566.53;4995598;28;20105;-79
2021/07/10 09:03:18;;;;;;;3.63;1.25;;;;;;;33.14;30.68;100567.38;4996070;28;20121;-79
2021/07/10 09:06:22;;;;;;;6.75;1.35;;;;;;;33.17;30.85;100561.25;4996156;28;20079;-80
2021/07/10 09:09:46;;;;;;;3.85;1.30;;;;;;;33.44;31.06;100570.16;4996713;28;20505;-78
2021/07/10 09:12:57;;;;;;;3.72;1.20;;;;;;;33.43;30.82;100566.53;4996573;28;20049;-78
2021/07/10 09:16:06;;;;;;;5.15;1.35;;;;;;;33.20;30.47;100566.28;4996792;28;20053;-79
2021/07/10 09:19:11;;;;;;;8.02;1.30;;;;;;;32.54;31.04;100568.09;4995618;28;20398;-78
2021/07/10 09:22:27;;;;;;;5.43;1.50;;;;;;;32.09;31.88;100564.00;4996685;28;20050;-78
2021/07/10 09:25:33;;;;;;;4.70;1.55;;;;;;;32.38;31.29;100569.94;4996259;28;20053;-78
2021/07/10 09:28:37;;;;;;;5.75;1.10;;;;;;;32.70;30.79;100559.50;4996146;28;20045;-79
2021/07/10 09:31:43;;;;;;;3.00;1.42;;;;;;;33.17;30.35;100564.03;4995965;28;20532;-78
2021/07/10 09:35:00;;;;;;;3.03;1.00;;;;;;;33.32;30.16;100559.31;4996502;28;20057;-78
2021/07/10 09:38:17;;;;;;;4.50;1.05;;;;;;;33.40;30.04;100555.13;4995882;28;20054;-78
2021/07/10 09:41:28;;;;;;;7.68;1.50;;;;;;;33.51;30.88;100555.94;4996013;28;20053;-78
2021/07/10 09:44:47;;;;;;;2.53;1.10;;;;;;;33.66;30.66;100551.22;4996403;28;20118;-78
2021/07/10 09:47:52;;;;;;;3.63;1.48;;;;;;;33.65;30.59;100546.78;4995819;28;20497;-78
2021/07/10 09:51:16;;;;;;;5.75;1.75;;;;;;;33.52;30.96;100547.31;5026410;28;20595;-78
2021/07/10 09:54:27;;;;;;;4.93;1.23;;;;;;;33.64;29.85;100547.88;5035573;28;20500;-78
2021/07/10 09:57:36;;;;;;;7.80;1.55;;;;;;;33.32;30.49;100541.78;5034773;28;20046;-78
2021/07/10 10:00:40;;;;;;;6.82;1.30;;;;;;;33.18;30.93;100540.69;5035527;28;20081;-79
2021/07/10 10:03:44;;;;;;;2.80;1.00;;;;;;;33.07;30.58;100539.00;5035085;28;20048;-79
2021/07/10 10:06:50;;;;;;;4.07;1.20;;;;;;;32.81;31.24;100540.91;5035437;28;20057;-78
2021/07/10 10:09:57;;;;;;;3.08;1.00;;;;;;;32.81;31.17;100528.94;5034404;28;20056;-78
2021/07/10 10:13:04;;;;;;;8.35;1.20;;;;;;;32.91;30.68;100523.38;5034676;28;20121;-79
2021/07/10 10:16:15;;;;;;;3.28;0.93;;;;;;;32.85;31.16;100521.69;5035237;28;20072;-77
2021/07/10 10:19:22;;;;;;;3.45;0.90;;;;;;;32.83;30.29;100521.16;5034086;28;20040;-78
2021/07/10 10:22:26;;;;;;;5.03;1.08;;;;;;;32.92;30.51;100511.97;5034763;28;20056;-78
2021/07/10 10:25:33;;;;;;;5.18;1.00;;;;;;;33.03;30.73;100505.34;5035112;28;20049;-78
2021/07/10 10:28:38;;;;;;;9.27;1.40;;;;;;;32.84;31.13;100500.59;5034663;28;20072;-79
2021/07/10 10:31:43;;;;;;;5.47;1.27;;;;;;;32.54;30.81;100496.63;5034522;28;20487;-78
2021/07/10 10:34:50;;;;;;;6.13;1.30;;;;;;;32.26;30.94;100499.88;5033938;28;20057;-79
2021/07/10 10:37:55;;;;;;;6.18;1.30;;;;;;;32.28;30.14;100489.34;5033325;28;20045;-78
2021/07/10 10:41:02;;;;;;;5.45;1.35;;;;;;;32.19;29.79;100493.75;5034423;28;20049;-79
2021/07/10 10:44:06;;;;;;;9.88;1.45;;;;;;;32.09;29.94;100499.28;5034072;28;20100;-78
2021/07/10 10:47:12;;;;;;;8.70;1.40;;;;;;;32.28;29.90;100488.50;5034430;28;20232;-78
2021/07/10 10:50:23;;;;;;;7.15;1.40;;;;;;;32.30;30.44;100483.50;5033849;28;20056;-78
2021/07/10 10:53:28;;;;;;;9.40;5.35;;;;;;;32.34;30.83;100479.06;5033414;28;20053;-79
2021/07/10 10:56:39;;;;;;;5.47;2.15;;;;;;;32.27;30.65;100479.31;5033633;28;20060;-78
2021/07/10 10:59:45;;;;;;;5.05;1.65;;;;;;;32.27;30.56;100475.72;5022310;28;20495;-79
2021/07/10 11:02:49;;;;;;;6.43;1.58;;;;;;;32.05;30.44;100479.53;5034313;28;20057;-79
2021/07/10 11:05:57;;;;;;;7.00;1.45;;;;;;;31.63;30.67;100473.19;5033124;28;20049;-77
2021/07/10 11:09:02;;;;;;;4.90;1.15;;;;;;;31.68;31.02;100469.66;5033173;28;20507;-77
2021/07/10 11:12:06;;;;;;;7.53;3.33;;;;;;;31.82;32.33;100468.03;5033909;28;20093;-78
2021/07/10 11:15:27;;;;;;;11.55;7.63;;;;;;;31.82;29.74;100476.38;5033652;28;20060;-78
2021/07/10 11:18:48;;;;;;;6.28;1.20;;;;;;;31.83;29.16;100466.91;5034143;28;20076;-77
2021/07/10 11:21:53;;;;;;;4.47;1.35;;;;;;;31.89;30.04;100455.56;5033836;28;20048;-76
2021/07/10 11:24:57;;;;;;;4.30;1.15;;;;;;;31.92;31.31;100459.75;5033015;28;20499;-78
2021/07/10 11:28:16;;;;;;;4.85;1.13;;;;;;;31.88;31.37;100447.50;5034114;28;20480;-77
2021/07/10 11:31:25;;;;;;;4.22;1.00;;;;;;;31.74;31.17;100446.34;5032985;28;20412;-78
2021/07/10 11:34:40;;;;;;;3.28;1.17;;;;;;;31.46;31.57;100445.66;5033732;28;20048;-80
2021/07/10 11:37:47;;;;;;;5.05;1.20;;;;;;;31.60;31.69;100439.63;5033698;28;20056;-78
2021/07/10 11:41:00;;;;;;;8.07;1.40;;;;;;;31.45;32.13;100443.97;5033642;28;20056;-78
2021/07/10 11:44:12;;;;;;;5.07;1.60;;;;;;;31.46;31.55;100434.53;5033652;28;20064;-79
2021/07/10 11:47:33;;;;;;;4.47;1.27;;;;;;;31.71;31.43;100425.50;5033584;28;20060;-78
2021/07/10 11:50:40;;;;;;;7.25;1.40;;;;;;;31.57;30.85;100417.94;5032998;28;20056;-78
2021/07/10 11:53:44;;;;;;;9.75;1.10;;;;;;;31.64;31.43;100424.91;5010066;28;20392;-78
2021/07/10 11:56:51;;;;;;;6.10;1.38;;;;;;;31.77;30.92;100407.78;5033206;28;20049;-77
2021/07/10 11:59:57;;;;;;;8.40;1.08;;;;;;;31.62;30.55;100415.19;5035525;28;20045;-77
2021/07/10 12:03:03;;;;;;;9.88;1.20;;;;;;;31.46;31.33;100417.91;5036716;28;20061;-78
2021/07/10 12:06:08;;;;;;;7.40;1.20;;;;;;;31.38;31.38;100406.47;5033981;28;20512;-79
2021/07/10 12:09:12;;;;;;;3.92;1.30;;;;;;;31.53;31.31;100395.44;5037268;28;20053;-79
2021/07/10 12:12:17;;;;;;;4.30;1.40;;;;;;;31.56;30.93;100399.59;5036054;28;20527;-80
2021/07/10 12:15:32;;;;;;;3.45;0.88;;;;;;;31.56;32.32;100399.59;5023710;28;20056;-81
2021/07/10 12:18:38;;;;;;;8.13;1.45;;;;;;;31.50;31.11;100405.13;5017861;28;20057;-79
2021/07/10 12:21:42;;;;;;;5.38;0.98;;;;;;;31.53;30.77;100385.19;5005218;28;20056;-78
2021/07/10 12:24:48;;;;;;;4.50;0.80;;;;;;;31.60;30.25;100386.88;5017508;28;20065;-79
2021/07/10 12:28:04;;;;;;;1.92;0.80;;;;;;;31.71;30.30;100385.78;5016874;28;20069;-79
2021/07/10 12:31:21;;;;;;;4.10;1.23;;;;;;;31.70;30.03;100378.59;5017315;28;20072;-81
2021/07/10 12:34:26;;;;;;;4.90;3.40;;;;;;;31.62;30.35;100381.88;5005216;28;20057;-81
2021/07/10 12:37:30;;;;;;;15.15;13.60;;;;;;;31.70;30.70;100389.69;5020517;28;20060;-80
2021/07/10 12:40:34;;;;;;;5.63;1.75;;;;;;;31.74;30.69;100372.22;5028035;28;20045;-79
2021/07/10 12:43:38;;;;;;;4.53;1.10;;;;;;;31.81;30.58;100374.72;5036572;28;20391;-78
2021/07/10 12:47:00;;;;;;;4.28;1.00;;;;;;;31.76;29.85;100370.00;5016985;28;20053;-79
2021/07/10 12:50:05;;;;;;;2.45;0.75;;;;;;;31.66;30.34;100367.19;5035061;28;20045;-79
2021/07/10 12:53:12;;;;;;;4.88;1.08;;;;;;;31.65;30.40;100365.53;5036227;28;20056;-78
2021/07/10 12:56:42;;;;;;;3.58;1.27;;;;;;;31.70;31.08;100359.97;5036706;28;20056;-79
2021/07/10 13:00:00;;;;;;;4.40;1.50;;;;;;;31.76;31.40;100358.88;5027293;28;20117;-79
2021/07/10 13:03:08;;;;;;;3.40;0.90;;;;;;;31.58;31.47;100367.69;5018963;28;20044;-79
2021/07/10 13:06:19;;;;;;;12.43;9.40;;;;;;;31.57;32.09;100368.00;5011890;28;20109;-80
2021/07/10 13:09:36;;;;;;;8.13;3.20;;;;;;;31.69;31.23;100354.69;5035831;28;20396;-78
2021/07/10 13:12:43;;;;;;;2.72;0.90;;;;;;;31.80;31.53;100364.75;5034841;28;20523;-79
2021/07/10 13:15:48;;;;;;;3.08;0.80;;;;;;;31.88;31.39;100370.56;5033915;28;20512;-80
2021/07/10 13:18:59;;;;;;;3.40;0.95;;;;;;;31.89;30.85;100355.59;5016171;28;20069;-78
2021/07/10 13:22:03;;;;;;;3.90;1.00;;;;;;;31.80;30.89;100359.19;5033158;28;20049;-79
2021/07/10 13:25:09;;;;;;;2.10;0.60;;;;;;;31.78;31.00;100362.22;5034037;28;20056;-79
2021/07/10 13:28:36;;;;;;;2.28;0.90;;;;;;;31.74;30.49;100355.56;5024379;28;20417;-78
2021/07/10 13:31:46;;;;;;;1.90;0.90;;;;;;;31.88;30.27;100351.16;5018218;28;20612;-79
2021/07/10 13:34:50;;;;;;;2.47;0.77;;;;;;;31.91;30.24;100358.09;5003831;28;20056;-78
2021/07/10 13:37:54;;;;;;;3.33;0.80;;;;;;;31.78;31.06;100355.81;5015642;28;20049;-78
2021/07/10 13:41:15;;;;;;;3.65;1.15;;;;;;;31.79;30.17;100354.72;5003555;28;20061;-78
2021/07/10 13:44:42;;;;;;;3.08;0.80;;;;;;;31.76;30.17;100342.22;5015687;28;20052;-79
2021/07/10 13:47:46;;;;;;;4.07;0.70;;;;;;;31.85;30.76;100345.31;5027082;28;20052;-78
2021/07/10 13:51:03;;;;;;;5.00;0.70;;;;;;;31.90;29.80;100325.91;5034470;28;20049;-78
2021/07/10 13:54:26;;;;;;;7.05;0.85;;;;;;;31.98;29.29;100319.81;5031942;28;20044;-78
2021/07/10 13:57:37;;;;;;;2.80;1.00;;;;;;;31.96;29.45;100322.00;5027592;28;20048;-77
2021/07/10 14:00:44;;;;;;;2.50;0.80;;;;;;;31.84;30.43;100313.09;5030900;28;20408;-80
2021/07/10 14:03:48;;;;;;;5.43;0.88;;;;;;;31.78;30.04;100316.97;5034684;28;20049;-77
2021/07/10 14:06:57;;;;;;;2.67;1.08;;;;;;;31.80;29.85;100312.00;5033476;28;20057;-79
2021/07/10 14:10:08;;;;;;;4.55;0.90;;;;;;;31.77;30.54;100302.28;5032724;28;20056;-80
2021/07/10 14:13:21;;;;;;;4.30;0.80;;;;;;;31.83;30.34;100287.25;5030208;28;20400;-79
2021/07/10 14:16:25;;;;;;;4.63;0.90;;;;;;;31.95;29.48;100292.53;5032725;28;20142;-79
2021/07/10 14:19:29;;;;;;;2.70;0.95;;;;;;;32.03;30.26;100290.09;5033016;28;20048;-81
2021/07/10 14:22:33;;;;;;;3.40;0.90;;;;;;;31.97;30.16;100284.81;5033464;28;20385;-80
2021/07/10 14:25:39;;;;;;;2.10;0.70;;;;;;;32.10;30.43;100282.31;5034224;28;20040;-79